Terminal Aerodrome Forecast
Issued by NWS Greer, SC

Home | Current Version | Previous Version | Text Only | Print | Product List | Glossary On
Versions: 1 2 3 4 5 6 7 8 9 10 11 12 13 14 15 16 17 18 19 20 21 22 23 24 25 26 27 28 29 30 31 32 33 34 35 36 37 38 39 40 41 42 43 44 45 46 47 48 49 50
000
FTUS42 KGSP 101700
TAFCLT
TAF
KCLT 101739Z 1018/1118 34003KT P6SM FEW045 BKN060 OVC100
     FM102200 35003KT 6SM -TSRA FEW030 BKN060CB
      TEMPO 1023/1103 VRB10G20KT 4SM TSRA OVC040CB
     FM110300 VRB03KT P6SM BKN090 PROB30 1103/1105 6SM -SHRA OVC040
     FM110500 00000KT P6SM FEW090 SCT250=

USA.gov is the U.S. government's official web portal to all federal, state and local government web resources and services.